Time;durP1;ratioP1;P1;durP2;ratioP2;P2;SDS_P1;SDS_P2;PMS_P1;PMS_P2;Temp;Humidity;BMP_temperature;BMP_pressure;BME280_temperature;BME280_humidity;BME280_pressure;Samples;Min_cycle;Max_cycle;Signal;HPM_P1;HPM_P2
2022/04/25 00:01:12;;;;;;;3.13;1.75;;;;;;;;;;6185018;22;20057;-81
2022/04/25 00:03:39;;;;;;;3.47;1.67;;;;;;;;;;6184912;23;20001;-85
2022/04/25 00:06:05;;;;;;;4.07;1.50;;;;;;;;;;6184822;22;20376;-83
2022/04/25 00:08:32;;;;;;;3.83;1.58;;;;;;;;;;6185017;22;20001;-84
2022/04/25 00:10:58;;;;;;;3.13;1.35;;;;;;;;;;6211508;23;20011;-84
2022/04/25 00:13:24;;;;;;;2.10;1.23;;;;;;;;;;6184584;22;20016;-80
2022/04/25 00:15:52;;;;;;;2.47;1.30;;;;;;;;;;6210863;23;20012;-82
2022/04/25 00:18:18;;;;;;;2.65;1.50;;;;;;;;;;6184709;22;20334;-81
2022/04/25 00:20:45;;;;;;;2.88;1.70;;;;;;;;;;6184686;22;20013;-84
2022/04/25 00:23:11;;;;;;;3.90;1.75;;;;;;;;;;6211875;23;20008;-85
2022/04/25 00:25:37;;;;;;;2.78;1.40;;;;;;;;;;6184797;22;20015;-81
2022/04/25 00:28:05;;;;;;;2.55;1.40;;;;;;;;;;6185239;22;20012;-82
2022/04/25 00:30:32;;;;;;;2.45;1.20;;;;;;;;;;6185167;23;20004;-82
2022/04/25 00:32:59;;;;;;;2.95;1.75;;;;;;;;;;6186556;22;20001;-83
2022/04/25 00:35:25;;;;;;;3.03;1.42;;;;;;;;;;6186057;22;20028;-81
2022/04/25 00:37:52;;;;;;;3.35;1.60;;;;;;;;;;6186592;22;20058;-85
2022/04/25 00:40:19;;;;;;;2.70;1.38;;;;;;;;;;6186175;22;20005;-87
2022/04/25 00:42:45;;;;;;;3.55;1.50;;;;;;;;;;6212733;23;20057;-84
2022/04/25 00:45:11;;;;;;;2.92;1.73;;;;;;;;;;6186024;22;20005;-81
2022/04/25 00:47:38;;;;;;;3.10;1.58;;;;;;;;;;6186151;22;20455;-87
2022/04/25 00:50:05;;;;;;;2.85;1.60;;;;;;;;;;6186043;22;20008;-81
2022/04/25 00:52:31;;;;;;;2.65;1.52;;;;;;;;;;6212811;23;20011;-85
2022/04/25 00:54:59;;;;;;;3.35;1.60;;;;;;;;;;6187509;22;20107;-81
2022/04/25 00:57:25;;;;;;;3.90;1.83;;;;;;;;;;6213509;23;20000;-87
2022/04/25 00:59:52;;;;;;;2.58;1.40;;;;;;;;;;6186014;22;20030;-86
2022/04/25 01:02:18;;;;;;;4.05;1.70;;;;;;;;;;6185810;22;20005;-80
2022/04/25 01:04:44;;;;;;;2.70;1.52;;;;;;;;;;6186122;22;20016;-82
2022/04/25 01:07:11;;;;;;;3.28;1.48;;;;;;;;;;6186074;22;20083;-81
2022/04/25 01:09:37;;;;;;;4.03;2.20;;;;;;;;;;6186157;22;20001;-84
2022/04/25 01:12:03;;;;;;;4.28;2.30;;;;;;;;;;6186605;22;20005;-88
2022/04/25 01:14:30;;;;;;;4.57;1.92;;;;;;;;;;6213487;23;20110;-81
2022/04/25 01:16:56;;;;;;;3.72;1.95;;;;;;;;;;6212057;23;20100;-83
2022/04/25 01:19:22;;;;;;;3.97;1.88;;;;;;;;;;6186208;22;20028;-83
2022/04/25 01:21:52;;;;;;;5.18;1.95;;;;;;;;;;6212504;23;20000;-88
2022/04/25 01:27:16;;;;;;;3.38;1.55;;;;;;;;;;6212621;23;20012;-81
2022/04/25 01:29:44;;;;;;;4.75;1.73;;;;;;;;;;6186184;22;20027;-82
2022/04/25 01:32:10;;;;;;;3.17;1.70;;;;;;;;;;6186334;22;20000;-86
2022/04/25 01:34:37;;;;;;;3.10;1.58;;;;;;;;;;6185899;22;20103;-79
2022/04/25 01:37:08;;;;;;;3.25;1.67;;;;;;;;;;6185756;22;20338;-83
2022/04/25 01:39:35;;;;;;;3.30;1.60;;;;;;;;;;6185836;23;20001;-81
2022/04/25 01:42:01;;;;;;;2.70;1.45;;;;;;;;;;6186067;23;20311;-84
2022/04/25 01:44:28;;;;;;;3.28;1.92;;;;;;;;;;6185968;22;20011;-81
2022/04/25 01:46:54;;;;;;;3.63;1.85;;;;;;;;;;6185710;22;20303;-82
2022/04/25 01:49:20;;;;;;;4.13;1.80;;;;;;;;;;6186041;22;20046;-82
2022/04/25 01:51:47;;;;;;;3.33;1.65;;;;;;;;;;6185931;23;20004;-83
2022/04/25 01:54:13;;;;;;;3.25;1.52;;;;;;;;;;6212442;23;20448;-81
2022/04/25 01:56:39;;;;;;;5.03;1.65;;;;;;;;;;6185949;22;20418;-83
2022/04/25 01:59:05;;;;;;;2.47;1.50;;;;;;;;;;6185827;22;20096;-81
2022/04/25 02:01:31;;;;;;;4.00;1.70;;;;;;;;;;6212492;23;20003;-85
2022/04/25 02:03:58;;;;;;;3.40;1.60;;;;;;;;;;6186076;22;20008;-81
2022/04/25 02:06:24;;;;;;;3.50;1.63;;;;;;;;;;6186218;22;20433;-86
2022/04/25 02:08:51;;;;;;;2.58;1.42;;;;;;;;;;6185984;22;20009;-88
2022/04/25 02:11:20;;;;;;;2.10;1.27;;;;;;;;;;6185910;22;20464;-85
2022/04/25 02:13:47;;;;;;;2.65;1.40;;;;;;;;;;6212130;23;20460;-82
2022/04/25 02:16:13;;;;;;;3.08;1.42;;;;;;;;;;6186071;22;20024;-84
2022/04/25 02:18:40;;;;;;;2.90;1.55;;;;;;;;;;6186135;22;20001;-86
2022/04/25 02:21:07;;;;;;;2.63;1.30;;;;;;;;;;6186402;22;20009;-81
2022/04/25 02:23:33;;;;;;;5.40;1.40;;;;;;;;;;6185894;22;20457;-85
2022/04/25 02:26:00;;;;;;;2.60;1.08;;;;;;;;;;6212188;23;20000;-81
2022/04/25 02:28:27;;;;;;;2.08;1.30;;;;;;;;;;6185468;22;20004;-80
2022/04/25 02:30:53;;;;;;;2.55;1.15;;;;;;;;;;6185713;23;20012;-83
2022/04/25 02:33:20;;;;;;;2.03;1.13;;;;;;;;;;6185815;22;20011;-87
2022/04/25 02:35:46;;;;;;;3.13;1.38;;;;;;;;;;6185927;22;20049;-85
2022/04/25 02:38:12;;;;;;;4.40;1.05;;;;;;;;;;6185951;23;20319;-83
2022/04/25 02:40:38;;;;;;;2.22;1.00;;;;;;;;;;6186844;22;20087;-83
2022/04/25 02:43:04;;;;;;;1.50;0.80;;;;;;;;;;6188019;22;20004;-85
2022/04/25 02:45:30;;;;;;;1.58;0.80;;;;;;;;;;6185865;22;20061;-83
2022/04/25 02:47:57;;;;;;;1.92;0.73;;;;;;;;;;6185887;22;20339;-83
2022/04/25 02:50:23;;;;;;;2.15;1.05;;;;;;;;;;6185840;22;20032;-84
2022/04/25 02:52:53;;;;;;;1.52;0.80;;;;;;;;;;6186723;23;20050;-84
2022/04/25 02:55:19;;;;;;;2.28;0.90;;;;;;;;;;6188768;23;20016;-82
2022/04/25 02:57:46;;;;;;;1.95;1.00;;;;;;;;;;6186641;22;20445;-86
2022/04/25 03:00:12;;;;;;;2.25;1.02;;;;;;;;;;6185448;22;20009;-82
2022/04/25 03:02:38;;;;;;;2.33;0.90;;;;;;;;;;6185358;22;20073;-81
2022/04/25 03:05:05;;;;;;;5.88;0.90;;;;;;;;;;6185318;22;20373;-83
2022/04/25 03:07:31;;;;;;;5.25;0.90;;;;;;;;;;6185555;22;20011;-83
2022/04/25 03:09:57;;;;;;;1.30;0.73;;;;;;;;;;6185580;22;20043;-82
2022/04/25 03:12:25;;;;;;;1.95;0.80;;;;;;;;;;6211705;23;20076;-82
2022/04/25 03:14:51;;;;;;;2.53;1.00;;;;;;;;;;6185221;23;20024;-87
2022/04/25 03:17:17;;;;;;;2.95;0.98;;;;;;;;;;6185642;22;20042;-81
2022/04/25 03:19:44;;;;;;;1.52;0.80;;;;;;;;;;6211859;23;20000;-83
2022/04/25 03:22:10;;;;;;;2.08;0.90;;;;;;;;;;6211991;23;20008;-84
2022/04/25 03:24:36;;;;;;;1.63;0.88;;;;;;;;;;6185179;22;20376;-82
2022/04/25 03:27:02;;;;;;;2.58;1.15;;;;;;;;;;6211772;23;20019;-82
2022/04/25 03:29:29;;;;;;;1.80;0.90;;;;;;;;;;6184832;22;20011;-82
2022/04/25 03:31:55;;;;;;;1.77;0.90;;;;;;;;;;6185233;22;20008;-86
2022/04/25 03:34:21;;;;;;;1.42;0.75;;;;;;;;;;6185213;22;20017;-80
2022/04/25 03:36:51;;;;;;;1.83;0.60;;;;;;;;;;6185549;22;20089;-85
2022/04/25 03:39:18;;;;;;;1.60;0.40;;;;;;;;;;6185607;23;20011;-82
2022/04/25 03:41:44;;;;;;;1.17;0.50;;;;;;;;;;6211733;23;20207;-86
2022/04/25 03:44:10;;;;;;;2.90;0.30;;;;;;;;;;6211705;23;20061;-86
2022/04/25 03:46:36;;;;;;;2.88;0.70;;;;;;;;;;6211714;23;20090;-85
2022/04/25 03:49:02;;;;;;;0.70;0.25;;;;;;;;;;6184925;22;20009;-84
2022/04/25 03:51:29;;;;;;;0.47;0.20;;;;;;;;;;6211502;23;20330;-83
2022/04/25 03:53:55;;;;;;;2.97;0.55;;;;;;;;;;6211510;23;20009;-83
2022/04/25 03:59:26;;;;;;;0.80;0.30;;;;;;;;;;6121022;23;20006;-84
2022/04/25 04:01:52;;;;;;;0.60;0.20;;;;;;;;;;6120013;23;20045;-82
2022/04/25 04:04:18;;;;;;;0.98;0.20;;;;;;;;;;6137788;23;20001;-83
2022/04/25 04:06:44;;;;;;;0.57;0.20;;;;;;;;;;6211878;23;20039;-83
2022/04/25 04:11:55;;;;;;;0.40;0.20;;;;;;;;;;6212745;23;20023;-83
2022/04/25 04:14:21;;;;;;;0.43;0.20;;;;;;;;;;6185807;23;20461;-81
2022/04/25 04:16:47;;;;;;;2.42;0.10;;;;;;;;;;6213128;23;20334;-80
2022/04/25 04:19:13;;;;;;;0.57;0.20;;;;;;;;;;6186433;22;20372;-87
2022/04/25 04:21:39;;;;;;;0.30;0.10;;;;;;;;;;6186298;22;20001;-81
2022/04/25 04:24:06;;;;;;;0.82;0.30;;;;;;;;;;6186359;22;20009;-83
2022/04/25 04:26:32;;;;;;;0.60;0.20;;;;;;;;;;6213587;23;20009;-80
2022/04/25 04:28:58;;;;;;;0.32;0.10;;;;;;;;;;6187352;22;20004;-81
2022/04/25 04:31:24;;;;;;;0.57;0.20;;;;;;;;;;6212191;23;20003;-79
2022/04/25 04:33:50;;;;;;;1.48;0.22;;;;;;;;;;6185521;22;20426;-79
2022/04/25 04:36:19;;;;;;;0.52;0.22;;;;;;;;;;6185232;22;20031;-81
2022/04/25 04:38:46;;;;;;;1.50;0.30;;;;;;;;;;6185360;22;20017;-80
2022/04/25 04:41:12;;;;;;;0.60;0.20;;;;;;;;;;6185436;22;20012;-89
2022/04/25 04:43:39;;;;;;;0.90;0.20;;;;;;;;;;6212687;23;20004;-81
2022/04/25 04:46:05;;;;;;;0.52;0.20;;;;;;;;;;6185643;22;20004;-80
2022/04/25 04:48:31;;;;;;;0.55;0.22;;;;;;;;;;6185705;22;20036;-87
2022/04/25 04:50:58;;;;;;;2.70;0.40;;;;;;;;;;6186169;22;20004;-78
2022/04/25 04:53:24;;;;;;;0.95;0.30;;;;;;;;;;6185525;23;20016;-81
2022/04/25 04:55:51;;;;;;;3.92;0.60;;;;;;;;;;6185609;22;20020;-78
2022/04/25 04:58:21;;;;;;;3.45;0.50;;;;;;;;;;6185538;23;20326;-90
2022/04/25 05:00:47;;;;;;;1.05;0.32;;;;;;;;;;6190400;22;20005;-81
2022/04/25 05:03:15;;;;;;;0.60;0.20;;;;;;;;;;6187403;23;20040;-80
2022/04/25 05:05:51;;;;;;;0.10;0.10;;;;;;;;;;6215759;23;20090;-90
2022/04/25 05:08:20;;;;;;;0.30;0.15;;;;;;;;;;6187164;22;20005;-85
2022/04/25 05:10:48;;;;;;;0.55;0.20;;;;;;;;;;6185247;22;20012;-78
2022/04/25 05:19:22;;;;;;;0.30;0.10;;;;;;;;;;6214660;23;20020;-81
2022/04/25 05:22:15;;;;;;;0.40;0.10;;;;;;;;;;6189972;23;20001;-88
2022/04/25 05:24:41;;;;;;;0.98;0.20;;;;;;;;;;6183847;23;20008;-86
2022/04/25 05:27:08;;;;;;;0.20;0.10;;;;;;;;;;6179041;23;20518;-90
2022/04/25 05:29:34;;;;;;;0.47;0.20;;;;;;;;;;6157908;23;20005;-87
2022/04/25 05:32:00;;;;;;;0.08;0.05;;;;;;;;;;6158789;23;20025;-91
2022/04/25 05:34:29;;;;;;;4.57;0.20;;;;;;;;;;6158352;23;20020;-76
2022/04/25 05:36:55;;;;;;;0.20;0.10;;;;;;;;;;6156336;23;20082;-79
2022/04/25 05:39:22;;;;;;;0.38;0.20;;;;;;;;;;6182482;23;20009;-77
2022/04/25 05:41:48;;;;;;;0.40;0.15;;;;;;;;;;6155956;22;20372;-78
2022/04/25 05:44:14;;;;;;;0.50;0.10;;;;;;;;;;6156117;23;20013;-80
2022/04/25 05:46:41;;;;;;;0.20;0.10;;;;;;;;;;6155117;23;20019;-86
2022/04/25 05:52:02;;;;;;;0.08;0.00;;;;;;;;;;6182606;23;20032;-77
2022/04/25 05:54:29;;;;;;;0.28;0.10;;;;;;;;;;6155408;22;20067;-81
2022/04/25 05:56:55;;;;;;;0.95;0.10;;;;;;;;;;6155539;23;20005;-82
2022/04/25 05:59:21;;;;;;;0.50;0.10;;;;;;;;;;6155774;23;20012;-79
2022/04/25 06:01:47;;;;;;;0.85;0.40;;;;;;;;;;6155684;23;20009;-81
2022/04/25 06:04:13;;;;;;;1.05;0.30;;;;;;;;;;6155830;23;20009;-83
2022/04/25 06:06:39;;;;;;;1.15;0.30;;;;;;;;;;6181822;23;20005;-81
2022/04/25 06:09:05;;;;;;;1.05;0.25;;;;;;;;;;6181586;23;20001;-79
2022/04/25 06:11:32;;;;;;;5.10;0.50;;;;;;;;;;6181767;23;20414;-78
2022/04/25 06:13:59;;;;;;;0.52;0.10;;;;;;;;;;6155454;23;20017;-79
2022/04/25 06:16:26;;;;;;;1.67;0.10;;;;;;;;;;6194330;23;20009;-77
2022/04/25 06:18:52;;;;;;;0.10;0.00;;;;;;;;;;6185710;22;20011;-76
2022/04/25 06:21:18;;;;;;;0.10;0.10;;;;;;;;;;6211264;23;20028;-78
2022/04/25 06:23:53;;;;;;;0.60;0.30;;;;;;;;;;6184348;23;20007;-79
2022/04/25 06:26:19;;;;;;;0.88;0.10;;;;;;;;;;6185864;22;20008;-90
2022/04/25 06:28:45;;;;;;;0.20;0.10;;;;;;;;;;6185242;22;20016;-79
2022/04/25 06:31:11;;;;;;;0.20;0.10;;;;;;;;;;6184633;22;20005;-78
2022/04/25 06:33:38;;;;;;;1.85;0.10;;;;;;;;;;6211674;23;20452;-78
2022/04/25 06:36:32;;;;;;;0.38;0.15;;;;;;;;;;6184654;22;20035;-85
2022/04/25 06:38:59;;;;;;;0.20;0.10;;;;;;;;;;6186583;23;20005;-84
2022/04/25 06:41:25;;;;;;;0.30;0.10;;;;;;;;;;6212372;23;20015;-85
2022/04/25 06:43:51;;;;;;;0.43;0.17;;;;;;;;;;6213015;23;20008;-78
2022/04/25 06:46:17;;;;;;;0.38;0.17;;;;;;;;;;6185256;22;20088;-76
2022/04/25 06:49:19;;;;;;;0.25;0.10;;;;;;;;;;6211453;23;20044;-76
2022/04/25 06:51:30;;;;;;;0.70;0.30;;;;;;;;;;6211031;23;20004;-78
2022/04/25 06:53:57;;;;;;;0.50;0.20;;;;;;;;;;6211269;23;20418;-79
2022/04/25 06:56:23;;;;;;;1.27;0.30;;;;;;;;;;6184620;23;20008;-77
2022/04/25 06:58:50;;;;;;;0.98;0.20;;;;;;;;;;6185180;23;20001;-76
2022/04/25 07:01:16;;;;;;;0.20;0.10;;;;;;;;;;6185108;22;20009;-77
2022/04/25 07:03:42;;;;;;;0.25;0.13;;;;;;;;;;6185068;22;20421;-79
2022/04/25 07:06:08;;;;;;;1.90;0.40;;;;;;;;;;6184942;23;20049;-86
2022/04/25 07:08:34;;;;;;;1.45;0.40;;;;;;;;;;6184897;23;20004;-80
2022/04/25 07:11:00;;;;;;;0.50;0.30;;;;;;;;;;6185020;22;20004;-78
2022/04/25 07:13:26;;;;;;;0.50;0.20;;;;;;;;;;6212623;23;20000;-80
2022/04/25 07:15:52;;;;;;;1.13;0.40;;;;;;;;;;6184563;22;20028;-77
2022/04/25 07:18:18;;;;;;;5.50;1.85;;;;;;;;;;6183636;22;20330;-78
2022/04/25 07:20:45;;;;;;;7.90;2.00;;;;;;;;;;6183943;22;20009;-80
2022/04/25 07:28:49;;;;;;;0.95;0.40;;;;;;;;;;6210892;23;20145;-80
2022/04/25 07:31:15;;;;;;;0.63;0.20;;;;;;;;;;6184240;22;20468;-80
2022/04/25 07:33:43;;;;;;;0.43;0.20;;;;;;;;;;6211033;23;20004;-80
2022/04/25 07:36:09;;;;;;;0.40;0.20;;;;;;;;;;6211176;23;20453;-78
2022/04/25 07:38:36;;;;;;;0.40;0.20;;;;;;;;;;6210781;23;20005;-78
2022/04/25 07:41:02;;;;;;;0.80;0.30;;;;;;;;;;6211446;23;20076;-82
2022/04/25 07:43:29;;;;;;;0.50;0.10;;;;;;;;;;6212645;23;20000;-81
2022/04/25 07:45:55;;;;;;;0.50;0.20;;;;;;;;;;6185836;22;20065;-80
2022/04/25 07:48:21;;;;;;;0.68;0.30;;;;;;;;;;6212095;23;20007;-79
2022/04/25 07:50:48;;;;;;;2.35;0.30;;;;;;;;;;6185811;22;20342;-80
2022/04/25 07:53:15;;;;;;;0.85;0.30;;;;;;;;;;6185727;22;20079;-80
2022/04/25 07:55:41;;;;;;;0.75;0.22;;;;;;;;;;6185530;22;20015;-79
2022/04/25 07:58:10;;;;;;;2.83;0.80;;;;;;;;;;6185804;22;20483;-77
2022/04/25 08:00:40;;;;;;;0.90;0.30;;;;;;;;;;6212145;23;20008;-78
2022/04/25 08:03:06;;;;;;;0.98;0.30;;;;;;;;;;6212396;23;20001;-80
2022/04/25 08:05:33;;;;;;;0.60;0.17;;;;;;;;;;6212422;23;20429;-77
2022/04/25 08:07:59;;;;;;;0.28;0.13;;;;;;;;;;6212174;23;20004;-79
2022/04/25 08:10:25;;;;;;;0.90;0.20;;;;;;;;;;6211604;23;20000;-79
2022/04/25 08:18:21;;;;;;;14.35;3.60;;;;;;;;;;6212281;23;20058;-77
2022/04/25 08:20:48;;;;;;;9.45;2.33;;;;;;;;;;6211633;23;20001;-78
2022/04/25 08:23:14;;;;;;;0.75;0.35;;;;;;;;;;6212227;23;20001;-78
2022/04/25 08:25:41;;;;;;;0.30;0.20;;;;;;;;;;6212574;23;20016;-77
2022/04/25 08:28:08;;;;;;;1.02;0.28;;;;;;;;;;6212034;23;20072;-80
2022/04/25 08:30:34;;;;;;;0.52;0.30;;;;;;;;;;6185209;22;20089;-80
2022/04/25 08:33:01;;;;;;;2.55;0.30;;;;;;;;;;6185052;22;20007;-78
2022/04/25 08:35:28;;;;;;;0.68;0.20;;;;;;;;;;6211586;23;20387;-77
2022/04/25 08:37:54;;;;;;;1.02;0.32;;;;;;;;;;6184697;22;20004;-80
2022/04/25 08:40:21;;;;;;;1.77;0.40;;;;;;;;;;6211411;23;20005;-79
2022/04/25 08:42:48;;;;;;;1.75;0.38;;;;;;;;;;6211934;23;20001;-79
2022/04/25 08:45:15;;;;;;;1.63;0.50;;;;;;;;;;6212315;23;20398;-78
2022/04/25 08:47:47;;;;;;;1.08;0.40;;;;;;;;;;6211124;23;20001;-77
2022/04/25 08:50:17;;;;;;;1.27;0.50;;;;;;;;;;6211588;23;20001;-78
2022/04/25 08:52:44;;;;;;;0.70;0.35;;;;;;;;;;6212134;23;20073;-80
2022/04/25 08:55:14;;;;;;;0.85;0.38;;;;;;;;;;6183822;22;20020;-78
2022/04/25 08:57:42;;;;;;;0.95;0.35;;;;;;;;;;6211027;23;20003;-78
2022/04/25 09:00:09;;;;;;;1.52;0.50;;;;;;;;;;6211739;23;20001;-77
2022/04/25 09:02:36;;;;;;;1.92;0.70;;;;;;;;;;6184873;23;20008;-79
2022/04/25 09:05:03;;;;;;;0.85;0.40;;;;;;;;;;6185217;22;20005;-79
2022/04/25 09:07:29;;;;;;;23.05;5.88;;;;;;;;;;6185366;23;20452;-78
2022/04/25 09:09:55;;;;;;;27.92;7.07;;;;;;;;;;6185183;22;20704;-78
2022/04/25 09:12:21;;;;;;;1.92;0.70;;;;;;;;;;6185500;22;20053;-79
2022/04/25 09:14:47;;;;;;;2.30;0.80;;;;;;;;;;6185298;23;20013;-81
2022/04/25 09:17:13;;;;;;;6.63;0.50;;;;;;;;;;6279807;22;20436;-78
2022/04/25 09:19:40;;;;;;;1.52;0.60;;;;;;;;;;6339975;22;20336;-78
2022/04/25 09:22:07;;;;;;;1.27;0.43;;;;;;;;;;6312342;22;20009;-78
2022/04/25 09:24:34;;;;;;;0.88;0.40;;;;;;;;;;6311911;22;20030;-78
2022/04/25 09:27:18;;;;;;;0.93;0.50;;;;;;;;;;6340099;22;20416;-80
2022/04/25 09:29:46;;;;;;;0.77;0.40;;;;;;;;;;6312244;22;20013;-80
2022/04/25 09:32:13;;;;;;;1.10;0.50;;;;;;;;;;6311844;22;20006;-80
2022/04/25 09:37:42;;;;;;;1.35;0.50;;;;;;;;;;6339808;22;20029;-80
2022/04/25 09:40:08;;;;;;;0.80;0.40;;;;;;;;;;6311861;22;20089;-79
2022/04/25 09:42:36;;;;;;;3.20;0.50;;;;;;;;;;6311851;22;20421;-81
2022/04/25 09:45:03;;;;;;;1.67;0.75;;;;;;;;;;6311859;22;20010;-80
2022/04/25 09:47:33;;;;;;;1.30;0.80;;;;;;;;;;6311759;22;20057;-81
2022/04/25 09:50:00;;;;;;;1.40;0.80;;;;;;;;;;6339893;22;20108;-81
2022/04/25 09:52:27;;;;;;;3.78;1.05;;;;;;;;;;6338054;22;20003;-85
2022/04/25 09:54:53;;;;;;;4.80;1.10;;;;;;;;;;6312173;22;20344;-81
2022/04/25 09:57:32;;;;;;;2.17;1.15;;;;;;;;;;6311981;22;20003;-79
2022/04/25 09:59:59;;;;;;;2.83;1.38;;;;;;;;;;6339990;22;20097;-82
2022/04/25 10:02:25;;;;;;;1.92;1.00;;;;;;;;;;6311614;22;20006;-79
2022/04/25 10:04:52;;;;;;;1.73;0.80;;;;;;;;;;6339049;22;20429;-83
2022/04/25 10:07:20;;;;;;;1.30;0.80;;;;;;;;;;6311475;22;20003;-82
2022/04/25 10:09:47;;;;;;;4.03;1.00;;;;;;;;;;6339542;22;20074;-84
2022/04/25 10:12:13;;;;;;;2.60;1.20;;;;;;;;;;6310627;22;20010;-79
2022/04/25 10:14:40;;;;;;;1.80;0.90;;;;;;;;;;6338950;22;20011;-85
2022/04/25 10:17:07;;;;;;;1.60;0.75;;;;;;;;;;6250547;22;20015;-80
2022/04/25 10:19:33;;;;;;;1.38;0.73;;;;;;;;;;6185143;22;20016;-81
2022/04/25 10:21:59;;;;;;;2.08;0.88;;;;;;;;;;6184915;22;20000;-79
2022/04/25 10:24:25;;;;;;;1.98;0.98;;;;;;;;;;6184831;22;20350;-79
2022/04/25 10:26:52;;;;;;;1.52;0.60;;;;;;;;;;6211719;23;20333;-79
2022/04/25 10:29:24;;;;;;;1.50;0.80;;;;;;;;;;6211577;23;20008;-78
2022/04/25 10:31:51;;;;;;;1.58;0.85;;;;;;;;;;6211792;23;20043;-79
2022/04/25 10:34:17;;;;;;;3.05;1.08;;;;;;;;;;6211521;23;20009;-83
2022/04/25 10:36:44;;;;;;;1.33;0.75;;;;;;;;;;6211289;23;20057;-80
2022/04/25 10:39:24;;;;;;;1.27;0.60;;;;;;;;;;6185205;22;20043;-82
2022/04/25 10:44:38;;;;;;;3.55;0.70;;;;;;;;;;6211471;23;20012;-84
2022/04/25 10:47:06;;;;;;;1.95;1.00;;;;;;;;;;6211341;23;20307;-80
2022/04/25 10:49:34;;;;;;;1.05;0.50;;;;;;;;;;6211434;23;19996;-81
2022/04/25 10:52:00;;;;;;;1.20;0.70;;;;;;;;;;6211296;23;20056;-83
2022/04/25 10:54:28;;;;;;;2.30;0.70;;;;;;;;;;6184650;22;20012;-81
2022/04/25 10:57:17;;;;;;;1.52;0.93;;;;;;;;;;6211855;23;20001;-85
2022/04/25 10:59:44;;;;;;;1.40;0.63;;;;;;;;;;6211836;23;20009;-84
2022/04/25 11:02:24;;;;;;;1.42;0.70;;;;;;;;;;6184737;22;20445;-81
2022/04/25 11:05:09;;;;;;;1.50;0.60;;;;;;;;;;6185136;22;20063;-82
2022/04/25 11:07:36;;;;;;;3.55;1.00;;;;;;;;;;6184925;22;20528;-88
2022/04/25 11:10:03;;;;;;;2.67;0.73;;;;;;;;;;6185028;22;20009;-80
2022/04/25 11:12:49;;;;;;;2.08;0.70;;;;;;;;;;6186718;22;20364;-83
2022/04/25 11:15:35;;;;;;;1.63;0.90;;;;;;;;;;6212521;23;20088;-83
2022/04/25 11:18:24;;;;;;;1.73;0.63;;;;;;;;;;6210751;23;20017;-85
2022/04/25 11:21:07;;;;;;;1.90;1.00;;;;;;;;;;6211322;23;20030;-86
2022/04/25 11:23:34;;;;;;;2.78;0.90;;;;;;;;;;6185250;23;20769;-85
2022/04/25 11:26:01;;;;;;;2.00;1.13;;;;;;;;;;6185216;23;20049;-84
2022/04/25 11:28:27;;;;;;;1.70;0.90;;;;;;;;;;6211483;23;20008;-84
2022/04/25 11:31:12;;;;;;;1.85;0.95;;;;;;;;;;6211220;23;20009;-82
2022/04/25 11:33:42;;;;;;;1.95;0.88;;;;;;;;;;6185657;22;20005;-81
2022/04/25 11:36:11;;;;;;;3.97;1.30;;;;;;;;;;6185019;23;20047;-81
2022/04/25 11:41:22;;;;;;;1.60;0.80;;;;;;;;;;6212036;23;20020;-84
2022/04/25 11:43:48;;;;;;;1.80;0.77;;;;;;;;;;6211451;23;20433;-81
2022/04/25 11:46:15;;;;;;;1.70;0.80;;;;;;;;;;6211851;23;20364;-83
2022/04/25 11:48:42;;;;;;;2.45;0.98;;;;;;;;;;6185109;22;20005;-88
2022/04/25 11:51:18;;;;;;;1.38;0.80;;;;;;;;;;6212862;23;20418;-93
2022/04/25 11:53:45;;;;;;;1.45;0.80;;;;;;;;;;6186782;23;20279;-89
2022/04/25 11:56:16;;;;;;;2.15;1.15;;;;;;;;;;6185514;22;20020;-84
2022/04/25 11:58:45;;;;;;;3.95;1.10;;;;;;;;;;6185721;22;20008;-91
2022/04/25 12:01:14;;;;;;;2.33;1.20;;;;;;;;;;6214866;22;20058;-94
2022/04/25 12:03:53;;;;;;;1.70;1.10;;;;;;;;;;6216903;23;20000;-95
2022/04/25 12:06:22;;;;;;;1.73;1.00;;;;;;;;;;6184671;22;20008;-89
2022/04/25 12:17:40;;;;;;;4.15;1.10;;;;;;;;;;6340661;22;20493;-94
2022/04/25 12:20:07;;;;;;;;;;;;;;;;;;6312910;22;20007;-82
2022/04/25 12:22:34;;;;;;;2.72;1.23;;;;;;;;;;6311626;22;19898;-82
2022/04/25 12:25:10;;;;;;;1.92;1.10;;;;;;;;;;6311780;22;20013;-83
2022/04/25 12:27:36;;;;;;;2.20;1.20;;;;;;;;;;6311962;22;20416;-85
2022/04/25 12:30:07;;;;;;;5.72;1.70;;;;;;;;;;6340576;22;20034;-82
2022/04/25 12:32:33;;;;;;;2.95;1.30;;;;;;;;;;6312681;22;20010;-87
2022/04/25 12:35:02;;;;;;;2.22;0.90;;;;;;;;;;6312809;22;20018;-82
2022/04/25 12:37:28;;;;;;;1.45;0.80;;;;;;;;;;6313042;22;19995;-75
2022/04/25 12:40:03;;;;;;;1.55;0.70;;;;;;;;;;6313025;22;20007;-87
2022/04/25 12:42:46;;;;;;;2.40;1.20;;;;;;;;;;6312951;22;20003;-80
2022/04/25 12:45:14;;;;;;;4.03;1.20;;;;;;;;;;6312459;22;20037;-79
2022/04/25 12:47:43;;;;;;;1.70;0.85;;;;;;;;;;6341055;22;20048;-81
2022/04/25 12:50:10;;;;;;;2.40;0.90;;;;;;;;;;6312980;22;20003;-82
2022/04/25 12:52:49;;;;;;;5.50;0.70;;;;;;;;;;6312289;22;20424;-81
2022/04/25 12:55:15;;;;;;;1.85;0.60;;;;;;;;;;6340045;22;20018;-77
2022/04/25 12:57:53;;;;;;;1.00;0.47;;;;;;;;;;6312980;22;20085;-78
2022/04/25 13:00:19;;;;;;;1.67;0.60;;;;;;;;;;6339769;22;20010;-83
2022/04/25 13:02:45;;;;;;;4.60;2.00;;;;;;;;;;6312586;22;20010;-79
2022/04/25 13:05:13;;;;;;;1.70;0.60;;;;;;;;;;6312192;22;20013;-85
2022/04/25 13:07:44;;;;;;;0.90;0.45;;;;;;;;;;6339695;22;20002;-80
2022/04/25 13:10:11;;;;;;;4.10;0.63;;;;;;;;;;6315752;22;20014;-80
2022/04/25 13:12:39;;;;;;;1.17;0.52;;;;;;;;;;6340085;22;20413;-85
2022/04/25 13:15:06;;;;;;;0.90;0.40;;;;;;;;;;6340088;22;20018;-80
2022/04/25 13:17:36;;;;;;;1.42;0.60;;;;;;;;;;6312857;22;20025;-79
2022/04/25 13:20:03;;;;;;;2.20;0.60;;;;;;;;;;6339333;22;20003;-80
2022/04/25 13:22:29;;;;;;;2.13;0.80;;;;;;;;;;6337844;22;20309;-82
2022/04/25 13:24:55;;;;;;;1.15;0.50;;;;;;;;;;6339844;22;19999;-81
2022/04/25 13:27:22;;;;;;;1.55;0.63;;;;;;;;;;6339788;22;20061;-82
2022/04/25 13:29:48;;;;;;;1.58;0.70;;;;;;;;;;6337774;22;20085;-81
2022/04/25 13:32:14;;;;;;;1.73;0.80;;;;;;;;;;6339756;22;19998;-81
2022/04/25 13:34:40;;;;;;;1.20;0.52;;;;;;;;;;6338148;22;20019;-83
2022/04/25 13:37:06;;;;;;;2.35;0.70;;;;;;;;;;6340007;22;19999;-80
2022/04/25 13:39:33;;;;;;;1.40;0.68;;;;;;;;;;6339995;22;20006;-80
2022/04/25 13:42:01;;;;;;;1.60;0.70;;;;;;;;;;6338405;22;20009;-81
2022/04/25 13:44:27;;;;;;;1.60;0.75;;;;;;;;;;6338463;22;20002;-82
2022/04/25 13:46:54;;;;;;;1.70;0.63;;;;;;;;;;6338017;22;20030;-81
2022/04/25 13:49:20;;;;;;;2.20;0.80;;;;;;;;;;6338344;22;20007;-81
2022/04/25 13:51:46;;;;;;;2.08;1.00;;;;;;;;;;6339958;22;20052;-81
2022/04/25 13:54:12;;;;;;;1.63;0.73;;;;;;;;;;6338223;22;20002;-81
2022/04/25 13:56:40;;;;;;;5.18;1.20;;;;;;;;;;6338141;22;20064;-83
2022/04/25 13:59:06;;;;;;;1.50;0.80;;;;;;;;;;6339816;22;20002;-83
2022/04/25 14:05:40;;;;;;;1.90;1.10;;;;;;;;;;5113048;27;20445;-80
2022/04/25 14:08:10;;;;;;;3.20;1.25;;;;;;;;;;5091155;28;20101;-84
2022/04/25 14:10:37;;;;;;;6.35;2.22;;;;;;;;;;5089862;28;20461;-86
2022/04/25 14:13:05;;;;;;;4.88;1.45;;;;;;;;;;5089877;28;20116;-84
2022/04/25 14:15:31;;;;;;;3.85;1.95;;;;;;;;;;5091100;28;20054;-84
2022/04/25 14:17:59;;;;;;;5.28;1.80;;;;;;;;;;5089684;28;20058;-85
2022/04/25 14:20:25;;;;;;;2.03;1.30;;;;;;;;;;5089886;28;20485;-80
2022/04/25 14:22:54;;;;;;;4.55;2.17;;;;;;;;;;5090045;28;20473;-84
2022/04/25 14:25:20;;;;;;;5.22;1.92;;;;;;;;;;5090956;28;20480;-84
2022/04/25 14:27:46;;;;;;;11.48;2.97;;;;;;;;;;5090731;28;20448;-86
2022/04/25 14:30:12;;;;;;;10.20;3.05;;;;;;;;;;5090935;28;20039;-83
2022/04/25 14:32:38;;;;;;;7.07;2.30;;;;;;;;;;5089627;28;20020;-83
2022/04/25 14:35:05;;;;;;;8.02;2.63;;;;;;;;;;5090891;28;20063;-84
2022/04/25 14:37:31;;;;;;;10.23;2.88;;;;;;;;;;5090296;28;20024;-87
2022/04/25 14:39:57;;;;;;;11.27;3.20;;;;;;;;;;5090600;28;20025;-83
2022/04/25 14:42:23;;;;;;;7.50;2.20;;;;;;;;;;5089337;28;20032;-81
2022/04/25 14:44:49;;;;;;;12.43;2.80;;;;;;;;;;5089717;28;20024;-87
2022/04/25 14:47:15;;;;;;;27.42;4.20;;;;;;;;;;5089512;28;20028;-86
2022/04/25 14:55:11;;;;;;;6.68;2.22;;;;;;;;;;5090821;28;20097;-87
2022/04/25 14:57:37;;;;;;;4.00;2.35;;;;;;;;;;5089743;28;20028;-87
2022/04/25 15:00:04;;;;;;;14.27;2.63;;;;;;;;;;5089396;28;20028;-85
2022/04/25 15:02:31;;;;;;;4.20;2.08;;;;;;;;;;5088991;28;20021;-81
2022/04/25 15:04:57;;;;;;;4.15;1.70;;;;;;;;;;5088903;28;20075;-87
2022/04/25 15:07:23;;;;;;;3.53;2.10;;;;;;;;;;5088766;28;20066;-82
2022/04/25 15:09:49;;;;;;;6.18;1.83;;;;;;;;;;5088712;28;20499;-80
2022/04/25 15:12:15;;;;;;;3.40;2.13;;;;;;;;;;5088306;28;20028;-77
2022/04/25 15:14:41;;;;;;;3.28;2.13;;;;;;;;;;5086691;28;20097;-78
2022/04/25 15:17:07;;;;;;;4.70;2.42;;;;;;;;;;5075662;28;20100;-78
2022/04/25 15:19:33;;;;;;;6.18;3.72;;;;;;;;;;5075020;28;20039;-77
2022/04/25 15:21:59;;;;;;;6.07;3.00;;;;;;;;;;5076085;28;20047;-78
2022/04/25 15:24:26;;;;;;;4.35;2.10;;;;;;;;;;5075314;28;20035;-78
2022/04/25 15:26:54;;;;;;;2.85;1.80;;;;;;;;;;5075049;28;20521;-77
2022/04/25 15:29:20;;;;;;;3.45;1.73;;;;;;;;;;5074383;28;20550;-77
2022/04/25 15:31:47;;;;;;;4.32;1.75;;;;;;;;;;5074729;28;20078;-79
2022/04/25 15:34:13;;;;;;;3.78;1.80;;;;;;;;;;5074694;28;20822;-78
2022/04/25 15:36:39;;;;;;;2.85;1.42;;;;;;;;;;5074691;28;20028;-77
2022/04/25 15:39:07;;;;;;;2.70;1.50;;;;;;;;;;5076485;28;20032;-86
2022/04/25 15:41:33;;;;;;;2.53;1.40;;;;;;;;;;5076412;28;20028;-90